sensor_id;sensor_type;location;lat;lon;timestamp;P1;durP1;ratioP1;P2;durP2;ratioP2
20255;SDS011;10286;59.364;18.016;2022-10-14T00:00:44;47.83;;;14.82;;
20255;SDS011;10286;59.364;18.016;2022-10-14T00:03:11;29.90;;;16.13;;
20255;SDS011;10286;59.364;18.016;2022-10-14T00:05:39;30.15;;;15.57;;
20255;SDS011;10286;59.364;18.016;2022-10-14T00:10:39;36.88;;;15.73;;
20255;SDS011;10286;59.364;18.016;2022-10-14T00:13:06;34.53;;;16.75;;
20255;SDS011;10286;59.364;18.016;2022-10-14T00:15:37;41.15;;;17.27;;
20255;SDS011;10286;59.364;18.016;2022-10-14T00:18:05;34.42;;;16.10;;
20255;SDS011;10286;59.364;18.016;2022-10-14T00:20:33;34.15;;;17.77;;
20255;SDS011;10286;59.364;18.016;2022-10-14T00:23:01;40.63;;;20.90;;
20255;SDS011;10286;59.364;18.016;2022-10-14T00:25:29;47.15;;;20.73;;
20255;SDS011;10286;59.364;18.016;2022-10-14T00:27:58;40.80;;;19.90;;
20255;SDS011;10286;59.364;18.016;2022-10-14T00:30:28;37.42;;;19.83;;
20255;SDS011;10286;59.364;18.016;2022-10-14T00:32:55;35.25;;;20.13;;
20255;SDS011;10286;59.364;18.016;2022-10-14T00:35:23;46.40;;;20.73;;
20255;SDS011;10286;59.364;18.016;2022-10-14T00:37:50;51.50;;;21.15;;
20255;SDS011;10286;59.364;18.016;2022-10-14T00:40:18;46.13;;;21.77;;
20255;SDS011;10286;59.364;18.016;2022-10-14T00:42:45;51.55;;;22.83;;
20255;SDS011;10286;59.364;18.016;2022-10-14T00:45:15;42.30;;;22.60;;
20255;SDS011;10286;59.364;18.016;2022-10-14T00:47:46;47.50;;;22.05;;
20255;SDS011;10286;59.364;18.016;2022-10-14T00:50:18;37.58;;;21.50;;
20255;SDS011;10286;59.364;18.016;2022-10-14T00:52:46;46.40;;;22.23;;
20255;SDS011;10286;59.364;18.016;2022-10-14T00:55:15;43.42;;;21.27;;
20255;SDS011;10286;59.364;18.016;2022-10-14T00:57:44;39.70;;;21.10;;
20255;SDS011;10286;59.364;18.016;2022-10-14T01:02:41;49.22;;;24.27;;
20255;SDS011;10286;59.364;18.016;2022-10-14T01:05:09;57.92;;;23.33;;
20255;SDS011;10286;59.364;18.016;2022-10-14T01:07:48;43.65;;;23.27;;
20255;SDS011;10286;59.364;18.016;2022-10-14T01:10:28;43.05;;;24.10;;
20255;SDS011;10286;59.364;18.016;2022-10-14T01:13:05;47.90;;;24.73;;
20255;SDS011;10286;59.364;18.016;2022-10-14T01:15:45;51.00;;;25.85;;
20255;SDS011;10286;59.364;18.016;2022-10-14T01:18:24;49.45;;;24.83;;
20255;SDS011;10286;59.364;18.016;2022-10-14T01:21:08;52.15;;;26.63;;
20255;SDS011;10286;59.364;18.016;2022-10-14T01:26:52;54.60;;;26.58;;
20255;SDS011;10286;59.364;18.016;2022-10-14T01:32:30;56.88;;;27.17;;
20255;SDS011;10286;59.364;18.016;2022-10-14T01:35:05;50.25;;;26.80;;
20255;SDS011;10286;59.364;18.016;2022-10-14T01:37:38;55.80;;;27.55;;
20255;SDS011;10286;59.364;18.016;2022-10-14T01:40:14;60.90;;;29.63;;
20255;SDS011;10286;59.364;18.016;2022-10-14T01:42:52;68.10;;;31.98;;
20255;SDS011;10286;59.364;18.016;2022-10-14T01:45:22;64.35;;;30.33;;
20255;SDS011;10286;59.364;18.016;2022-10-14T01:47:53;64.55;;;31.08;;
20255;SDS011;10286;59.364;18.016;2022-10-14T01:50:23;51.10;;;29.80;;
20255;SDS011;10286;59.364;18.016;2022-10-14T01:52:55;56.22;;;30.83;;
20255;SDS011;10286;59.364;18.016;2022-10-14T01:55:29;60.35;;;31.17;;
20255;SDS011;10286;59.364;18.016;2022-10-14T01:58:01;55.13;;;28.20;;
20255;SDS011;10286;59.364;18.016;2022-10-14T02:00:31;53.03;;;29.58;;
20255;SDS011;10286;59.364;18.016;2022-10-14T02:02:58;53.05;;;27.00;;
20255;SDS011;10286;59.364;18.016;2022-10-14T02:05:26;55.88;;;28.63;;
20255;SDS011;10286;59.364;18.016;2022-10-14T02:07:58;62.33;;;28.35;;
20255;SDS011;10286;59.364;18.016;2022-10-14T02:10:39;59.42;;;29.50;;
20255;SDS011;10286;59.364;18.016;2022-10-14T02:13:21;46.67;;;26.45;;
20255;SDS011;10286;59.364;18.016;2022-10-14T02:16:02;59.47;;;27.83;;
20255;SDS011;10286;59.364;18.016;2022-10-14T02:18:38;47.55;;;27.23;;
20255;SDS011;10286;59.364;18.016;2022-10-14T02:21:11;52.97;;;28.90;;
20255;SDS011;10286;59.364;18.016;2022-10-14T02:23:46;54.85;;;29.27;;
20255;SDS011;10286;59.364;18.016;2022-10-14T02:26:19;51.22;;;28.13;;
20255;SDS011;10286;59.364;18.016;2022-10-14T02:28:48;60.97;;;29.70;;
20255;SDS011;10286;59.364;18.016;2022-10-14T02:31:18;56.58;;;28.33;;
20255;SDS011;10286;59.364;18.016;2022-10-14T02:33:49;66.57;;;28.42;;
20255;SDS011;10286;59.364;18.016;2022-10-14T02:36:21;53.83;;;28.77;;
20255;SDS011;10286;59.364;18.016;2022-10-14T02:38:51;53.80;;;27.52;;
20255;SDS011;10286;59.364;18.016;2022-10-14T02:41:22;57.45;;;28.95;;
20255;SDS011;10286;59.364;18.016;2022-10-14T02:43:51;53.22;;;29.38;;
20255;SDS011;10286;59.364;18.016;2022-10-14T02:46:21;60.67;;;29.98;;
20255;SDS011;10286;59.364;18.016;2022-10-14T02:48:49;53.40;;;29.25;;
20255;SDS011;10286;59.364;18.016;2022-10-14T02:51:18;63.80;;;31.15;;
20255;SDS011;10286;59.364;18.016;2022-10-14T02:53:46;62.28;;;30.13;;
20255;SDS011;10286;59.364;18.016;2022-10-14T02:56:13;60.35;;;30.48;;
20255;SDS011;10286;59.364;18.016;2022-10-14T02:58:43;49.80;;;26.48;;
20255;SDS011;10286;59.364;18.016;2022-10-14T03:01:11;54.05;;;25.05;;
20255;SDS011;10286;59.364;18.016;2022-10-14T03:03:40;56.50;;;29.67;;
20255;SDS011;10286;59.364;18.016;2022-10-14T03:06:07;51.72;;;26.75;;
20255;SDS011;10286;59.364;18.016;2022-10-14T03:08:35;59.42;;;29.23;;
20255;SDS011;10286;59.364;18.016;2022-10-14T03:11:02;61.08;;;28.90;;
20255;SDS011;10286;59.364;18.016;2022-10-14T03:13:30;59.72;;;32.22;;
20255;SDS011;10286;59.364;18.016;2022-10-14T03:15:57;61.70;;;34.03;;
20255;SDS011;10286;59.364;18.016;2022-10-14T03:18:24;66.00;;;33.50;;
20255;SDS011;10286;59.364;18.016;2022-10-14T03:20:53;62.15;;;32.42;;
20255;SDS011;10286;59.364;18.016;2022-10-14T03:23:21;61.65;;;32.85;;
20255;SDS011;10286;59.364;18.016;2022-10-14T03:25:48;67.30;;;35.70;;
20255;SDS011;10286;59.364;18.016;2022-10-14T03:28:16;68.93;;;33.80;;
20255;SDS011;10286;59.364;18.016;2022-10-14T03:30:44;69.95;;;32.58;;
20255;SDS011;10286;59.364;18.016;2022-10-14T03:33:11;67.22;;;34.50;;
20255;SDS011;10286;59.364;18.016;2022-10-14T03:35:39;66.22;;;32.08;;
20255;SDS011;10286;59.364;18.016;2022-10-14T03:38:07;59.23;;;33.30;;
20255;SDS011;10286;59.364;18.016;2022-10-14T03:40:35;55.47;;;32.53;;
20255;SDS011;10286;59.364;18.016;2022-10-14T03:43:02;52.65;;;30.58;;
20255;SDS011;10286;59.364;18.016;2022-10-14T03:45:30;54.75;;;30.38;;
20255;SDS011;10286;59.364;18.016;2022-10-14T03:47:58;53.17;;;31.92;;
20255;SDS011;10286;59.364;18.016;2022-10-14T03:50:25;54.55;;;29.48;;
20255;SDS011;10286;59.364;18.016;2022-10-14T03:52:54;51.60;;;29.35;;
20255;SDS011;10286;59.364;18.016;2022-10-14T03:55:23;53.08;;;28.83;;
20255;SDS011;10286;59.364;18.016;2022-10-14T03:57:50;55.03;;;28.15;;
20255;SDS011;10286;59.364;18.016;2022-10-14T04:00:18;60.60;;;30.25;;
20255;SDS011;10286;59.364;18.016;2022-10-14T04:02:46;61.75;;;34.13;;
20255;SDS011;10286;59.364;18.016;2022-10-14T04:05:13;69.03;;;36.90;;
20255;SDS011;10286;59.364;18.016;2022-10-14T04:10:08;56.58;;;31.52;;
20255;SDS011;10286;59.364;18.016;2022-10-14T04:12:38;49.13;;;29.55;;
20255;SDS011;10286;59.364;18.016;2022-10-14T04:15:05;64.75;;;31.88;;
20255;SDS011;10286;59.364;18.016;2022-10-14T04:17:34;48.42;;;29.73;;
20255;SDS011;10286;59.364;18.016;2022-10-14T04:20:01;50.42;;;30.20;;
20255;SDS011;10286;59.364;18.016;2022-10-14T04:22:29;69.63;;;37.35;;
20255;SDS011;10286;59.364;18.016;2022-10-14T04:24:57;53.60;;;31.60;;
20255;SDS011;10286;59.364;18.016;2022-10-14T04:27:25;56.20;;;29.15;;
20255;SDS011;10286;59.364;18.016;2022-10-14T04:32:21;55.67;;;30.08;;
20255;SDS011;10286;59.364;18.016;2022-10-14T04:34:49;56.22;;;28.83;;
20255;SDS011;10286;59.364;18.016;2022-10-14T04:37:16;48.15;;;30.38;;
20255;SDS011;10286;59.364;18.016;2022-10-14T04:39:44;50.30;;;28.00;;
20255;SDS011;10286;59.364;18.016;2022-10-14T04:42:12;53.83;;;27.80;;
20255;SDS011;10286;59.364;18.016;2022-10-14T04:44:39;43.47;;;27.33;;
20255;SDS011;10286;59.364;18.016;2022-10-14T04:47:08;48.08;;;27.50;;
20255;SDS011;10286;59.364;18.016;2022-10-14T04:49:35;43.40;;;26.33;;
20255;SDS011;10286;59.364;18.016;2022-10-14T04:52:03;43.25;;;26.25;;
20255;SDS011;10286;59.364;18.016;2022-10-14T04:54:30;48.13;;;25.58;;
20255;SDS011;10286;59.364;18.016;2022-10-14T04:56:58;41.17;;;23.27;;
20255;SDS011;10286;59.364;18.016;2022-10-14T04:59:25;38.20;;;24.27;;
20255;SDS011;10286;59.364;18.016;2022-10-14T05:01:53;36.05;;;23.63;;
20255;SDS011;10286;59.364;18.016;2022-10-14T05:04:22;36.75;;;23.08;;
20255;SDS011;10286;59.364;18.016;2022-10-14T05:06:50;36.25;;;23.02;;
20255;SDS011;10286;59.364;18.016;2022-10-14T05:09:17;40.05;;;22.83;;
20255;SDS011;10286;59.364;18.016;2022-10-14T05:11:45;33.50;;;22.15;;
20255;SDS011;10286;59.364;18.016;2022-10-14T05:14:12;49.72;;;26.58;;
20255;SDS011;10286;59.364;18.016;2022-10-14T05:16:40;46.03;;;27.77;;
20255;SDS011;10286;59.364;18.016;2022-10-14T05:19:07;43.10;;;25.45;;
20255;SDS011;10286;59.364;18.016;2022-10-14T05:21:36;43.40;;;25.38;;
20255;SDS011;10286;59.364;18.016;2022-10-14T05:24:03;47.20;;;28.00;;
20255;SDS011;10286;59.364;18.016;2022-10-14T05:26:31;55.00;;;30.48;;
20255;SDS011;10286;59.364;18.016;2022-10-14T05:28:58;46.47;;;27.60;;
20255;SDS011;10286;59.364;18.016;2022-10-14T05:31:26;47.05;;;26.92;;
20255;SDS011;10286;59.364;18.016;2022-10-14T05:33:54;44.00;;;27.42;;
20255;SDS011;10286;59.364;18.016;2022-10-14T05:36:21;53.63;;;30.08;;
20255;SDS011;10286;59.364;18.016;2022-10-14T05:38:51;45.88;;;27.73;;
20255;SDS011;10286;59.364;18.016;2022-10-14T05:41:23;56.10;;;30.73;;
20255;SDS011;10286;59.364;18.016;2022-10-14T05:43:50;46.00;;;26.65;;
20255;SDS011;10286;59.364;18.016;2022-10-14T05:46:18;46.47;;;26.88;;
20255;SDS011;10286;59.364;18.016;2022-10-14T05:48:47;54.83;;;29.70;;
20255;SDS011;10286;59.364;18.016;2022-10-14T05:51:15;47.83;;;28.27;;
20255;SDS011;10286;59.364;18.016;2022-10-14T05:53:45;54.80;;;28.98;;
20255;SDS011;10286;59.364;18.016;2022-10-14T05:56:14;48.42;;;28.08;;
20255;SDS011;10286;59.364;18.016;2022-10-14T05:58:41;46.88;;;28.23;;
20255;SDS011;10286;59.364;18.016;2022-10-14T06:01:09;47.45;;;29.58;;
20255;SDS011;10286;59.364;18.016;2022-10-14T06:03:36;50.05;;;29.20;;
20255;SDS011;10286;59.364;18.016;2022-10-14T06:06:03;42.57;;;26.67;;
20255;SDS011;10286;59.364;18.016;2022-10-14T06:08:31;47.78;;;25.75;;
20255;SDS011;10286;59.364;18.016;2022-10-14T06:10:59;50.73;;;26.70;;
20255;SDS011;10286;59.364;18.016;2022-10-14T06:13:30;41.60;;;25.13;;
20255;SDS011;10286;59.364;18.016;2022-10-14T06:16:01;37.78;;;23.05;;
20255;SDS011;10286;59.364;18.016;2022-10-14T06:18:29;63.92;;;32.45;;
20255;SDS011;10286;59.364;18.016;2022-10-14T06:20:56;42.85;;;29.27;;
20255;SDS011;10286;59.364;18.016;2022-10-14T06:23:24;38.25;;;24.58;;
20255;SDS011;10286;59.364;18.016;2022-10-14T06:25:51;39.67;;;20.65;;
20255;SDS011;10286;59.364;18.016;2022-10-14T06:28:18;36.37;;;19.37;;
20255;SDS011;10286;59.364;18.016;2022-10-14T06:30:49;43.92;;;25.20;;
20255;SDS011;10286;59.364;18.016;2022-10-14T06:33:17;35.88;;;22.13;;
20255;SDS011;10286;59.364;18.016;2022-10-14T06:35:44;28.60;;;18.85;;
20255;SDS011;10286;59.364;18.016;2022-10-14T06:38:11;32.40;;;18.95;;
20255;SDS011;10286;59.364;18.016;2022-10-14T06:40:39;29.60;;;18.33;;
20255;SDS011;10286;59.364;18.016;2022-10-14T06:43:06;27.20;;;16.98;;
20255;SDS011;10286;59.364;18.016;2022-10-14T06:45:33;32.37;;;17.80;;
20255;SDS011;10286;59.364;18.016;2022-10-14T06:48:02;31.77;;;15.68;;
20255;SDS011;10286;59.364;18.016;2022-10-14T06:50:29;25.67;;;15.65;;
20255;SDS011;10286;59.364;18.016;2022-10-14T06:52:56;31.08;;;18.67;;
20255;SDS011;10286;59.364;18.016;2022-10-14T06:55:23;28.50;;;17.83;;
20255;SDS011;10286;59.364;18.016;2022-10-14T06:57:50;30.10;;;18.13;;
20255;SDS011;10286;59.364;18.016;2022-10-14T07:00:18;26.37;;;16.57;;
20255;SDS011;10286;59.364;18.016;2022-10-14T07:02:45;21.53;;;15.97;;
20255;SDS011;10286;59.364;18.016;2022-10-14T07:05:13;25.40;;;14.00;;
20255;SDS011;10286;59.364;18.016;2022-10-14T07:07:41;19.95;;;11.07;;
20255;SDS011;10286;59.364;18.016;2022-10-14T07:10:08;16.70;;;8.20;;
20255;SDS011;10286;59.364;18.016;2022-10-14T07:12:35;17.17;;;7.57;;
20255;SDS011;10286;59.364;18.016;2022-10-14T07:15:03;15.23;;;7.47;;
20255;SDS011;10286;59.364;18.016;2022-10-14T07:17:30;15.70;;;7.10;;
20255;SDS011;10286;59.364;18.016;2022-10-14T07:19:57;9.70;;;5.88;;
20255;SDS011;10286;59.364;18.016;2022-10-14T07:22:26;16.13;;;6.50;;
20255;SDS011;10286;59.364;18.016;2022-10-14T07:24:53;17.17;;;7.28;;
20255;SDS011;10286;59.364;18.016;2022-10-14T07:27:20;14.70;;;7.22;;
20255;SDS011;10286;59.364;18.016;2022-10-14T07:29:47;14.90;;;7.82;;
20255;SDS011;10286;59.364;18.016;2022-10-14T07:32:15;15.63;;;8.20;;
20255;SDS011;10286;59.364;18.016;2022-10-14T07:34:42;15.20;;;8.23;;
20255;SDS011;10286;59.364;18.016;2022-10-14T07:37:09;14.23;;;6.70;;
20255;SDS011;10286;59.364;18.016;2022-10-14T07:39:37;12.60;;;6.88;;
20255;SDS011;10286;59.364;18.016;2022-10-14T07:42:05;12.40;;;6.82;;
20255;SDS011;10286;59.364;18.016;2022-10-14T07:44:32;8.77;;;6.50;;
20255;SDS011;10286;59.364;18.016;2022-10-14T07:46:59;13.35;;;5.75;;
20255;SDS011;10286;59.364;18.016;2022-10-14T07:51:54;12.90;;;6.75;;
20255;SDS011;10286;59.364;18.016;2022-10-14T07:54:25;15.65;;;6.78;;
20255;SDS011;10286;59.364;18.016;2022-10-14T07:56:56;10.98;;;6.88;;
20255;SDS011;10286;59.364;18.016;2022-10-14T07:59:24;17.00;;;7.32;;
20255;SDS011;10286;59.364;18.016;2022-10-14T08:01:51;15.45;;;7.00;;
20255;SDS011;10286;59.364;18.016;2022-10-14T08:04:20;16.88;;;7.05;;
20255;SDS011;10286;59.364;18.016;2022-10-14T08:06:51;14.85;;;6.70;;
20255;SDS011;10286;59.364;18.016;2022-10-14T08:09:18;12.98;;;7.25;;
20255;SDS011;10286;59.364;18.016;2022-10-14T08:11:45;16.65;;;7.78;;
20255;SDS011;10286;59.364;18.016;2022-10-14T08:14:14;19.98;;;7.45;;
20255;SDS011;10286;59.364;18.016;2022-10-14T08:16:41;13.73;;;7.07;;
20255;SDS011;10286;59.364;18.016;2022-10-14T08:19:09;14.07;;;7.45;;
20255;SDS011;10286;59.364;18.016;2022-10-14T08:21:36;15.00;;;6.88;;
20255;SDS011;10286;59.364;18.016;2022-10-14T08:24:04;13.33;;;6.43;;
20255;SDS011;10286;59.364;18.016;2022-10-14T08:26:32;12.73;;;6.97;;
20255;SDS011;10286;59.364;18.016;2022-10-14T08:29:02;14.68;;;6.50;;
20255;SDS011;10286;59.364;18.016;2022-10-14T08:31:31;15.88;;;7.68;;
20255;SDS011;10286;59.364;18.016;2022-10-14T08:33:59;12.25;;;5.93;;
20255;SDS011;10286;59.364;18.016;2022-10-14T08:36:26;14.40;;;5.53;;
20255;SDS011;10286;59.364;18.016;2022-10-14T08:38:54;15.38;;;6.15;;
20255;SDS011;10286;59.364;18.016;2022-10-14T08:41:25;14.25;;;5.82;;
20255;SDS011;10286;59.364;18.016;2022-10-14T08:44:09;11.85;;;5.57;;
20255;SDS011;10286;59.364;18.016;2022-10-14T08:46:44;13.60;;;5.10;;
20255;SDS011;10286;59.364;18.016;2022-10-14T08:49:16;11.75;;;5.10;;
20255;SDS011;10286;59.364;18.016;2022-10-14T08:51:51;14.13;;;4.68;;
20255;SDS011;10286;59.364;18.016;2022-10-14T08:54:24;11.68;;;5.05;;
20255;SDS011;10286;59.364;18.016;2022-10-14T08:56:56;12.98;;;5.80;;
20255;SDS011;10286;59.364;18.016;2022-10-14T08:59:25;10.57;;;4.75;;
20255;SDS011;10286;59.364;18.016;2022-10-14T09:01:54;11.07;;;4.82;;
20255;SDS011;10286;59.364;18.016;2022-10-14T09:04:24;10.57;;;4.72;;
20255;SDS011;10286;59.364;18.016;2022-10-14T09:06:52;10.05;;;4.60;;
20255;SDS011;10286;59.364;18.016;2022-10-14T09:09:23;11.30;;;5.20;;
20255;SDS011;10286;59.364;18.016;2022-10-14T09:11:55;13.88;;;5.25;;
20255;SDS011;10286;59.364;18.016;2022-10-14T09:14:25;7.70;;;5.05;;
20255;SDS011;10286;59.364;18.016;2022-10-14T09:17:00;11.60;;;5.78;;
20255;SDS011;10286;59.364;18.016;2022-10-14T09:19:33;12.15;;;5.20;;
20255;SDS011;10286;59.364;18.016;2022-10-14T09:22:07;11.55;;;6.00;;
20255;SDS011;10286;59.364;18.016;2022-10-14T09:24:38;12.05;;;5.55;;
20255;SDS011;10286;59.364;18.016;2022-10-14T09:27:07;15.88;;;5.82;;
20255;SDS011;10286;59.364;18.016;2022-10-14T09:29:39;11.57;;;5.55;;
20255;SDS011;10286;59.364;18.016;2022-10-14T09:32:12;12.00;;;5.45;;
20255;SDS011;10286;59.364;18.016;2022-10-14T09:34:45;10.93;;;5.03;;
20255;SDS011;10286;59.364;18.016;2022-10-14T09:37:20;11.73;;;5.30;;
20255;SDS011;10286;59.364;18.016;2022-10-14T09:39:51;11.27;;;5.60;;
20255;SDS011;10286;59.364;18.016;2022-10-14T09:42:21;11.60;;;5.18;;
20255;SDS011;10286;59.364;18.016;2022-10-14T09:45:03;11.82;;;5.20;;
20255;SDS011;10286;59.364;18.016;2022-10-14T09:47:36;12.82;;;4.80;;
20255;SDS011;10286;59.364;18.016;2022-10-14T09:50:17;13.80;;;6.35;;
20255;SDS011;10286;59.364;18.016;2022-10-14T09:52:48;14.88;;;5.70;;
20255;SDS011;10286;59.364;18.016;2022-10-14T09:55:19;17.42;;;5.78;;
20255;SDS011;10286;59.364;18.016;2022-10-14T09:58:04;9.80;;;4.90;;
20255;SDS011;10286;59.364;18.016;2022-10-14T10:00:33;10.82;;;4.90;;
20255;SDS011;10286;59.364;18.016;2022-10-14T10:03:04;11.02;;;4.93;;
20255;SDS011;10286;59.364;18.016;2022-10-14T10:05:33;9.25;;;4.80;;
20255;SDS011;10286;59.364;18.016;2022-10-14T10:08:02;12.30;;;4.35;;
20255;SDS011;10286;59.364;18.016;2022-10-14T10:10:35;13.63;;;4.55;;
20255;SDS011;10286;59.364;18.016;2022-10-14T10:13:03;10.95;;;4.68;;
20255;SDS011;10286;59.364;18.016;2022-10-14T10:15:30;13.07;;;4.57;;
20255;SDS011;10286;59.364;18.016;2022-10-14T10:17:57;14.25;;;4.43;;
20255;SDS011;10286;59.364;18.016;2022-10-14T10:20:27;16.38;;;4.22;;
20255;SDS011;10286;59.364;18.016;2022-10-14T10:22:57;10.77;;;4.32;;
20255;SDS011;10286;59.364;18.016;2022-10-14T10:25:49;11.60;;;4.85;;
20255;SDS011;10286;59.364;18.016;2022-10-14T10:28:17;10.70;;;4.00;;
20255;SDS011;10286;59.364;18.016;2022-10-14T10:30:57;7.15;;;4.10;;
20255;SDS011;10286;59.364;18.016;2022-10-14T10:33:32;10.25;;;4.47;;
20255;SDS011;10286;59.364;18.016;2022-10-14T10:36:11;11.32;;;4.90;;
20255;SDS011;10286;59.364;18.016;2022-10-14T10:38:49;9.07;;;4.20;;
20255;SDS011;10286;59.364;18.016;2022-10-14T10:47:34;9.90;;;4.43;;
20255;SDS011;10286;59.364;18.016;2022-10-14T10:53:11;12.80;;;4.22;;
20255;SDS011;10286;59.364;18.016;2022-10-14T10:55:51;12.02;;;4.53;;
20255;SDS011;10286;59.364;18.016;2022-10-14T10:58:40;9.15;;;4.07;;
20255;SDS011;10286;59.364;18.016;2022-10-14T11:01:17;8.45;;;4.03;;
20255;SDS011;10286;59.364;18.016;2022-10-14T11:04:04;9.32;;;4.07;;
20255;SDS011;10286;59.364;18.016;2022-10-14T11:06:43;9.45;;;4.13;;
20255;SDS011;10286;59.364;18.016;2022-10-14T11:09:40;9.68;;;4.82;;
20255;SDS011;10286;59.364;18.016;2022-10-14T11:12:35;9.70;;;4.75;;
20255;SDS011;10286;59.364;18.016;2022-10-14T11:18:04;11.20;;;4.38;;
20255;SDS011;10286;59.364;18.016;2022-10-14T11:20:41;10.82;;;4.75;;
20255;SDS011;10286;59.364;18.016;2022-10-14T11:23:35;9.90;;;4.93;;
20255;SDS011;10286;59.364;18.016;2022-10-14T11:26:13;11.25;;;4.93;;
20255;SDS011;10286;59.364;18.016;2022-10-14T11:28:58;12.18;;;5.20;;
20255;SDS011;10286;59.364;18.016;2022-10-14T11:31:37;10.88;;;4.70;;
20255;SDS011;10286;59.364;18.016;2022-10-14T11:34:22;12.20;;;4.72;;
20255;SDS011;10286;59.364;18.016;2022-10-14T11:37:01;8.82;;;4.47;;
20255;SDS011;10286;59.364;18.016;2022-10-14T11:39:36;9.50;;;4.40;;
20255;SDS011;10286;59.364;18.016;2022-10-14T11:42:31;9.45;;;4.78;;
20255;SDS011;10286;59.364;18.016;2022-10-14T11:45:17;10.05;;;4.78;;
20255;SDS011;10286;59.364;18.016;2022-10-14T11:47:58;8.93;;;5.13;;
20255;SDS011;10286;59.364;18.016;2022-10-14T11:50:37;8.55;;;4.60;;
20255;SDS011;10286;59.364;18.016;2022-10-14T11:53:08;6.50;;;4.75;;
20255;SDS011;10286;59.364;18.016;2022-10-14T11:55:41;6.85;;;4.15;;
20255;SDS011;10286;59.364;18.016;2022-10-14T11:58:14;9.55;;;4.40;;
20255;SDS011;10286;59.364;18.016;2022-10-14T12:00:46;7.10;;;4.30;;
20255;SDS011;10286;59.364;18.016;2022-10-14T12:03:20;8.05;;;4.60;;
20255;SDS011;10286;59.364;18.016;2022-10-14T12:05:55;8.85;;;4.13;;
20255;SDS011;10286;59.364;18.016;2022-10-14T12:08:29;8.48;;;4.20;;
20255;SDS011;10286;59.364;18.016;2022-10-14T12:11:03;11.57;;;5.30;;
20255;SDS011;10286;59.364;18.016;2022-10-14T12:13:35;7.35;;;4.50;;
20255;SDS011;10286;59.364;18.016;2022-10-14T12:16:07;11.38;;;5.30;;
20255;SDS011;10286;59.364;18.016;2022-10-14T12:18:38;7.57;;;4.30;;
20255;SDS011;10286;59.364;18.016;2022-10-14T12:21:13;8.40;;;4.57;;
20255;SDS011;10286;59.364;18.016;2022-10-14T12:23:45;8.87;;;4.50;;
20255;SDS011;10286;59.364;18.016;2022-10-14T12:26:16;7.90;;;4.50;;
20255;SDS011;10286;59.364;18.016;2022-10-14T12:29:06;8.15;;;4.70;;
20255;SDS011;10286;59.364;18.016;2022-10-14T12:31:38;10.30;;;4.80;;
20255;SDS011;10286;59.364;18.016;2022-10-14T12:34:15;7.88;;;4.65;;
20255;SDS011;10286;59.364;18.016;2022-10-14T12:36:53;13.15;;;4.90;;
20255;SDS011;10286;59.364;18.016;2022-10-14T12:39:21;8.88;;;4.72;;
20255;SDS011;10286;59.364;18.016;2022-10-14T12:41:59;9.13;;;4.28;;
20255;SDS011;10286;59.364;18.016;2022-10-14T12:44:32;8.00;;;4.45;;
20255;SDS011;10286;59.364;18.016;2022-10-14T12:47:11;9.50;;;4.05;;
20255;SDS011;10286;59.364;18.016;2022-10-14T12:49:45;9.05;;;4.50;;
20255;SDS011;10286;59.364;18.016;2022-10-14T12:52:17;13.40;;;4.97;;
20255;SDS011;10286;59.364;18.016;2022-10-14T12:54:49;10.35;;;4.40;;
20255;SDS011;10286;59.364;18.016;2022-10-14T12:59:52;11.23;;;4.55;;
20255;SDS011;10286;59.364;18.016;2022-10-14T13:02:25;7.65;;;4.35;;
20255;SDS011;10286;59.364;18.016;2022-10-14T13:04:58;10.32;;;4.63;;
20255;SDS011;10286;59.364;18.016;2022-10-14T13:10:26;8.10;;;4.50;;
20255;SDS011;10286;59.364;18.016;2022-10-14T13:19:40;8.70;;;4.55;;
20255;SDS011;10286;59.364;18.016;2022-10-14T13:25:08;9.10;;;4.38;;
20255;SDS011;10286;59.364;18.016;2022-10-14T13:27:46;9.70;;;4.38;;
20255;SDS011;10286;59.364;18.016;2022-10-14T13:30:19;7.82;;;4.00;;
20255;SDS011;10286;59.364;18.016;2022-10-14T13:32:56;10.02;;;5.05;;
20255;SDS011;10286;59.364;18.016;2022-10-14T13:35:29;10.98;;;4.90;;
20255;SDS011;10286;59.364;18.016;2022-10-14T13:38:00;12.00;;;4.25;;
20255;SDS011;10286;59.364;18.016;2022-10-14T13:40:31;7.07;;;4.30;;
20255;SDS011;10286;59.364;18.016;2022-10-14T13:43:04;7.18;;;4.38;;
20255;SDS011;10286;59.364;18.016;2022-10-14T13:45:34;6.45;;;4.25;;
20255;SDS011;10286;59.364;18.016;2022-10-14T13:48:07;6.43;;;4.15;;
20255;SDS011;10286;59.364;18.016;2022-10-14T13:50:41;7.85;;;4.53;;
20255;SDS011;10286;59.364;18.016;2022-10-14T13:53:13;11.40;;;4.40;;
20255;SDS011;10286;59.364;18.016;2022-10-14T13:55:42;10.05;;;4.60;;
20255;SDS011;10286;59.364;18.016;2022-10-14T13:58:11;8.85;;;4.70;;
20255;SDS011;10286;59.364;18.016;2022-10-14T14:00:41;8.48;;;4.50;;
20255;SDS011;10286;59.364;18.016;2022-10-14T14:03:17;9.45;;;4.90;;
20255;SDS011;10286;59.364;18.016;2022-10-14T14:05:50;13.65;;;5.50;;
20255;SDS011;10286;59.364;18.016;2022-10-14T14:08:21;12.18;;;5.00;;
20255;SDS011;10286;59.364;18.016;2022-10-14T14:10:51;11.55;;;5.00;;
20255;SDS011;10286;59.364;18.016;2022-10-14T14:13:20;9.18;;;4.80;;
20255;SDS011;10286;59.364;18.016;2022-10-14T14:15:50;9.88;;;5.00;;
20255;SDS011;10286;59.364;18.016;2022-10-14T14:18:25;10.63;;;4.90;;
20255;SDS011;10286;59.364;18.016;2022-10-14T14:20:57;10.57;;;5.10;;
20255;SDS011;10286;59.364;18.016;2022-10-14T14:23:24;9.50;;;5.22;;
20255;SDS011;10286;59.364;18.016;2022-10-14T14:25:52;8.20;;;5.10;;
20255;SDS011;10286;59.364;18.016;2022-10-14T14:28:20;8.82;;;5.05;;
20255;SDS011;10286;59.364;18.016;2022-10-14T14:30:49;9.68;;;5.60;;
20255;SDS011;10286;59.364;18.016;2022-10-14T14:33:20;10.77;;;5.25;;
20255;SDS011;10286;59.364;18.016;2022-10-14T14:35:53;8.27;;;5.20;;
20255;SDS011;10286;59.364;18.016;2022-10-14T14:38:28;10.38;;;4.80;;
20255;SDS011;10286;59.364;18.016;2022-10-14T14:41:03;11.18;;;5.78;;
20255;SDS011;10286;59.364;18.016;2022-10-14T14:43:32;9.95;;;5.20;;
20255;SDS011;10286;59.364;18.016;2022-10-14T14:46:01;11.57;;;5.45;;
20255;SDS011;10286;59.364;18.016;2022-10-14T14:48:29;11.73;;;5.72;;
20255;SDS011;10286;59.364;18.016;2022-10-14T14:50:59;12.00;;;6.10;;
20255;SDS011;10286;59.364;18.016;2022-10-14T14:53:27;9.68;;;5.82;;
20255;SDS011;10286;59.364;18.016;2022-10-14T14:56:01;11.55;;;5.13;;
20255;SDS011;10286;59.364;18.016;2022-10-14T14:58:33;13.07;;;6.28;;
20255;SDS011;10286;59.364;18.016;2022-10-14T15:01:03;11.40;;;6.32;;
20255;SDS011;10286;59.364;18.016;2022-10-14T15:03:32;12.93;;;6.03;;
20255;SDS011;10286;59.364;18.016;2022-10-14T15:06:16;13.00;;;6.05;;
20255;SDS011;10286;59.364;18.016;2022-10-14T15:08:47;15.13;;;6.43;;
20255;SDS011;10286;59.364;18.016;2022-10-14T15:11:16;21.02;;;6.80;;
20255;SDS011;10286;59.364;18.016;2022-10-14T15:13:47;15.68;;;6.72;;
20255;SDS011;10286;59.364;18.016;2022-10-14T15:19:12;16.63;;;7.25;;
20255;SDS011;10286;59.364;18.016;2022-10-14T15:27:39;14.15;;;7.38;;
20255;SDS011;10286;59.364;18.016;2022-10-14T15:30:28;13.32;;;6.82;;
20255;SDS011;10286;59.364;18.016;2022-10-14T15:33:03;16.38;;;7.55;;
20255;SDS011;10286;59.364;18.016;2022-10-14T15:35:40;12.90;;;6.82;;